createdAt,value
2023-04-15T00:00:12.426Z,1.20
2023-04-15T00:03:07.506Z,1.42
2023-04-15T00:06:02.702Z,1.38
2023-04-15T00:08:57.037Z,1.00
2023-04-15T00:11:52.723Z,1.63
2023-04-15T00:14:46.914Z,1.35
2023-04-15T00:17:41.196Z,1.45
2023-04-15T00:20:35.653Z,1.10
2023-04-15T00:23:30.039Z,1.23
2023-04-15T00:26:24.217Z,1.10
2023-04-15T00:29:18.417Z,1.40
2023-04-15T00:32:12.594Z,1.50
2023-04-15T00:35:07.096Z,1.27
2023-04-15T00:38:01.812Z,1.67
2023-04-15T00:40:56.416Z,1.60
2023-04-15T00:43:50.593Z,1.10
2023-04-15T00:46:46.568Z,1.20
2023-04-15T00:49:40.738Z,1.33
2023-04-15T00:52:35.949Z,1.38
2023-04-15T00:55:30.254Z,1.55
2023-04-15T00:58:24.902Z,1.83
2023-04-15T01:01:23.045Z,1.73
2023-04-15T01:04:18.286Z,1.65
2023-04-15T01:07:12.686Z,1.17
2023-04-15T01:10:07.296Z,1.80
2023-04-15T01:13:01.456Z,1.10
2023-04-15T01:15:58.188Z,1.70
2023-04-15T01:18:53.348Z,2.13
2023-04-15T01:21:48.196Z,1.27
2023-04-15T01:24:43.009Z,1.38
2023-04-15T01:27:38.319Z,1.30
2023-04-15T01:30:36.846Z,1.40
2023-04-15T01:33:31.026Z,1.30
2023-04-15T01:36:25.137Z,1.45
2023-04-15T01:39:19.369Z,1.65
2023-04-15T01:42:13.533Z,1.33
2023-04-15T01:45:08.356Z,1.30
2023-04-15T01:48:02.544Z,1.33
2023-04-15T01:50:59.298Z,1.45
2023-04-15T01:53:53.631Z,1.35
2023-04-15T01:56:48.034Z,1.65
2023-04-15T01:59:42.360Z,2.10
2023-04-15T02:02:37.192Z,1.95
2023-04-15T02:05:31.673Z,2.28
2023-04-15T02:08:25.875Z,1.85
2023-04-15T02:11:20.940Z,1.30
2023-04-15T02:14:15.624Z,1.80
2023-04-15T02:17:09.955Z,2.13
2023-04-15T02:20:05.977Z,1.70
2023-04-15T02:23:00.264Z,1.60
2023-04-15T02:25:54.516Z,1.70
2023-04-15T02:28:50.056Z,1.95
2023-04-15T02:31:44.992Z,1.83
2023-04-15T02:34:42.442Z,1.48
2023-04-15T02:37:44.463Z,1.80
2023-04-15T02:40:39.004Z,1.58
2023-04-15T02:43:33.229Z,1.13
2023-04-15T02:46:28.654Z,1.42
2023-04-15T02:49:26.149Z,1.25
2023-04-15T02:52:20.324Z,1.70
2023-04-15T02:55:14.852Z,1.90
2023-04-15T02:58:09.322Z,1.55
2023-04-15T03:01:03.833Z,1.10
2023-04-15T03:03:58.117Z,1.42
2023-04-15T03:06:52.631Z,2.17
2023-04-15T03:09:48.988Z,1.55
2023-04-15T03:12:43.225Z,1.53
2023-04-15T03:15:37.641Z,1.05
2023-04-15T03:18:31.875Z,1.27
2023-04-15T03:21:26.103Z,1.70
2023-04-15T03:24:20.437Z,1.58
2023-04-15T03:27:14.996Z,1.30
2023-04-15T03:30:10.137Z,1.48
2023-04-15T03:33:04.345Z,1.55
2023-04-15T03:35:58.704Z,1.50
2023-04-15T03:38:52.938Z,1.25
2023-04-15T03:41:47.180Z,1.00
2023-04-15T03:44:41.290Z,0.75
2023-04-15T03:47:35.682Z,1.10
2023-04-15T03:50:29.967Z,1.05
2023-04-15T03:53:24.441Z,1.33
2023-04-15T03:56:18.631Z,1.30
2023-04-15T03:59:12.835Z,0.93
2023-04-15T04:02:07.052Z,1.83
2023-04-15T04:05:01.317Z,1.15
2023-04-15T04:07:55.518Z,1.33
2023-04-15T04:10:49.991Z,1.30
2023-04-15T04:13:44.193Z,1.40
2023-04-15T04:16:38.381Z,1.17
2023-04-15T04:19:32.631Z,1.10
2023-04-15T04:22:26.892Z,1.35
2023-04-15T04:25:21.110Z,1.30
2023-04-15T04:28:15.292Z,1.30
2023-04-15T04:31:10.167Z,1.23
2023-04-15T04:34:04.336Z,1.27
2023-04-15T04:36:58.662Z,1.13
2023-04-15T04:39:52.905Z,1.17
2023-04-15T04:42:47.322Z,1.00
2023-04-15T04:45:41.499Z,1.38
2023-04-15T04:48:35.755Z,1.25
2023-04-15T04:51:29.918Z,1.25
2023-04-15T04:54:24.918Z,1.20
2023-04-15T04:57:19.007Z,1.52
2023-04-15T05:00:13.769Z,1.50
2023-04-15T05:03:08.360Z,1.33
2023-04-15T05:06:04.321Z,0.98
2023-04-15T05:08:58.655Z,0.90
2023-04-15T05:11:52.856Z,0.70
2023-04-15T05:14:47.972Z,0.98
2023-04-15T05:17:42.164Z,0.90
2023-04-15T05:20:36.388Z,0.88
2023-04-15T05:23:30.622Z,0.90
2023-04-15T05:26:25.515Z,0.95
2023-04-15T05:29:19.712Z,0.93
2023-04-15T05:32:13.816Z,0.60
2023-04-15T05:35:09.247Z,1.48
2023-04-15T05:38:03.350Z,0.70
2023-04-15T05:40:57.797Z,0.93
2023-04-15T05:43:51.894Z,0.95
2023-04-15T05:46:46.016Z,0.95
2023-04-15T05:49:40.159Z,0.93
2023-04-15T05:52:34.518Z,0.73
2023-04-15T05:55:28.671Z,0.70
2023-04-15T05:58:22.781Z,0.38
2023-04-15T06:01:17.222Z,0.60
2023-04-15T06:04:11.449Z,0.80
2023-04-15T06:07:05.672Z,0.68
2023-04-15T06:09:59.821Z,0.80
2023-04-15T06:12:57.896Z,0.60
2023-04-15T06:15:52.096Z,0.77
2023-04-15T06:18:46.504Z,0.77
2023-04-15T06:21:40.779Z,0.57
2023-04-15T06:24:35.003Z,0.88
2023-04-15T06:27:29.196Z,0.60
2023-04-15T06:30:24.481Z,0.85
2023-04-15T06:33:18.848Z,0.65
2023-04-15T06:36:13.139Z,0.60
2023-04-15T06:39:07.243Z,0.60
2023-04-15T06:42:01.443Z,0.52
2023-04-15T06:44:55.638Z,0.77
2023-04-15T06:47:49.851Z,0.50
2023-04-15T06:50:44.096Z,0.68
2023-04-15T06:53:42.199Z,1.00
2023-04-15T06:56:36.451Z,0.70
2023-04-15T06:59:30.636Z,1.30
2023-04-15T07:02:25.102Z,0.98
2023-04-15T07:05:20.269Z,1.10
2023-04-15T07:08:15.290Z,0.93
2023-04-15T07:11:09.892Z,0.88
2023-04-15T07:14:04.113Z,0.77
2023-04-15T07:16:58.777Z,1.00
2023-04-15T07:19:52.971Z,0.88
2023-04-15T07:22:47.108Z,0.90
2023-04-15T07:25:41.712Z,1.58
2023-04-15T07:28:35.899Z,1.00
2023-04-15T07:31:30.264Z,0.70
2023-04-15T07:34:24.699Z,1.05
2023-04-15T07:37:18.864Z,0.73
2023-04-15T07:40:13.427Z,0.80
2023-04-15T07:43:07.926Z,0.50
2023-04-15T07:46:02.077Z,0.88
2023-04-15T07:48:56.628Z,1.15
2023-04-15T07:51:51.222Z,0.43
2023-04-15T07:54:45.425Z,0.80
2023-04-15T07:57:39.690Z,0.70
2023-04-15T08:00:33.953Z,1.00
2023-04-15T08:03:28.935Z,0.95
2023-04-15T08:06:25.212Z,0.57
2023-04-15T08:09:19.504Z,0.70
2023-04-15T08:12:14.695Z,0.98
2023-04-15T08:15:09.473Z,1.25
2023-04-15T08:18:03.632Z,1.08
2023-04-15T08:20:57.796Z,0.82
2023-04-15T08:23:54.567Z,0.63
2023-04-15T08:26:48.970Z,0.60
2023-04-15T08:29:43.085Z,1.27
2023-04-15T08:32:37.201Z,1.52
2023-04-15T08:35:31.802Z,0.98
2023-04-15T08:38:26.137Z,0.80
2023-04-15T08:41:26.475Z,1.00
2023-04-15T08:44:21.351Z,2.38
2023-04-15T08:47:17.879Z,2.70
2023-04-15T08:50:12.879Z,1.58
2023-04-15T08:53:07.628Z,2.38
2023-04-15T08:56:07.350Z,2.50
2023-04-15T08:59:04.606Z,1.95
2023-04-15T09:04:53.934Z,1.58
2023-04-15T09:07:48.035Z,1.25
2023-04-15T09:10:42.305Z,1.20
2023-04-15T09:13:36.484Z,0.88
2023-04-15T09:16:30.719Z,0.98
2023-04-15T09:19:26.383Z,1.15
2023-04-15T09:22:23.554Z,1.25
2023-04-15T09:25:17.624Z,1.35
2023-04-15T09:28:12.686Z,0.88
2023-04-15T09:31:06.896Z,0.75
2023-04-15T09:34:01.577Z,1.02
2023-04-15T09:36:58.121Z,1.00
2023-04-15T09:39:54.132Z,1.30
2023-04-15T09:42:58.142Z,1.10
2023-04-15T09:45:54.392Z,1.00
2023-04-15T09:48:48.614Z,1.13
2023-04-15T09:51:51.194Z,0.80
2023-04-15T09:54:57.710Z,0.90
2023-04-15T09:57:51.920Z,1.08
2023-04-15T10:00:48.554Z,1.30
2023-04-15T10:03:43.952Z,0.95
2023-04-15T10:06:38.343Z,0.70
2023-04-15T10:09:34.813Z,0.70
2023-04-15T10:12:30.190Z,0.57
2023-04-15T10:15:25.100Z,0.60
2023-04-15T10:18:22.253Z,0.65
2023-04-15T10:21:19.730Z,1.13
2023-04-15T10:24:14.572Z,0.57
2023-04-15T10:27:09.750Z,0.80
2023-04-15T10:30:04.986Z,0.57
2023-04-15T10:32:59.666Z,0.70
2023-04-15T10:35:56.164Z,0.90
2023-04-15T10:38:50.398Z,0.60
2023-04-15T10:41:44.620Z,0.95
2023-04-15T10:44:42.798Z,0.50
2023-04-15T10:47:37.017Z,0.50
2023-04-15T10:50:33.827Z,0.40
2023-04-15T10:53:32.264Z,0.55
2023-04-15T10:56:26.701Z,0.40
2023-04-15T10:59:22.321Z,0.30
2023-04-15T11:02:17.098Z,0.75
2023-04-15T11:05:12.714Z,0.63
2023-04-15T11:08:07.024Z,0.80
2023-04-15T11:11:01.264Z,0.38
2023-04-15T11:13:55.419Z,0.57
2023-04-15T11:16:49.870Z,1.00
2023-04-15T11:19:45.073Z,0.98
2023-04-15T11:22:39.338Z,1.02
2023-04-15T11:25:35.228Z,1.70
2023-04-15T11:28:31.717Z,1.10
2023-04-15T11:31:29.941Z,1.00
2023-04-15T11:34:27.586Z,0.68
2023-04-15T11:37:30.853Z,1.17
2023-04-15T11:40:26.920Z,0.70
2023-04-15T11:43:23.957Z,0.60
2023-04-15T11:46:18.347Z,0.70
2023-04-15T11:49:12.707Z,0.50
2023-04-15T11:52:13.459Z,0.63
2023-04-15T11:55:10.193Z,0.95
2023-04-15T11:58:18.072Z,1.05
2023-04-15T12:01:12.543Z,0.57
2023-04-15T12:04:17.002Z,0.40
2023-04-15T12:07:11.943Z,0.50
2023-04-15T12:10:06.264Z,0.77
2023-04-15T12:13:00.536Z,0.55
2023-04-15T12:15:57.202Z,0.85
2023-04-15T12:18:59.076Z,0.60
2023-04-15T12:21:54.134Z,0.90
2023-04-15T12:24:49.951Z,0.60
2023-04-15T12:27:52.205Z,0.70
2023-04-15T12:30:53.792Z,0.82
2023-04-15T12:33:51.090Z,0.55
2023-04-15T12:36:45.220Z,0.30
2023-04-15T12:39:41.763Z,0.93
2023-04-15T12:42:36.697Z,0.50
2023-04-15T12:45:30.845Z,0.70
2023-04-15T12:48:25.403Z,0.68
2023-04-15T12:51:19.529Z,1.30
2023-04-15T12:54:13.783Z,0.70
2023-04-15T12:57:08.452Z,1.02
2023-04-15T13:00:02.765Z,1.10
2023-04-15T13:02:57.147Z,0.98
2023-04-15T13:05:51.403Z,1.05
2023-04-15T13:08:57.371Z,0.80
2023-04-15T13:11:53.061Z,0.95
2023-04-15T13:14:47.258Z,0.77
2023-04-15T13:17:41.775Z,0.73
2023-04-15T13:20:35.923Z,1.00
2023-04-15T13:23:30.871Z,0.90
2023-04-15T13:26:24.971Z,0.65
2023-04-15T13:29:19.121Z,0.70
2023-04-15T13:32:13.212Z,0.50
2023-04-15T13:35:07.977Z,0.70
2023-04-15T13:38:02.423Z,0.70
2023-04-15T13:40:56.699Z,0.60
2023-04-15T13:43:50.783Z,0.82
2023-04-15T13:46:44.952Z,0.90
2023-04-15T13:49:39.065Z,0.88
2023-04-15T13:52:33.481Z,0.60
2023-04-15T13:55:28.764Z,1.10
2023-04-15T13:58:22.968Z,0.60
2023-04-15T14:01:17.503Z,0.68
2023-04-15T14:04:11.981Z,0.68
2023-04-15T14:07:06.566Z,1.60
2023-04-15T14:10:01.676Z,0.75
2023-04-15T14:12:55.792Z,0.52
2023-04-15T14:15:50.072Z,0.70
2023-04-15T14:18:45.861Z,0.50
2023-04-15T14:21:41.051Z,0.82
2023-04-15T14:24:35.205Z,0.70
2023-04-15T14:27:30.074Z,0.60
2023-04-15T14:30:24.223Z,0.50
2023-04-15T14:33:18.488Z,0.50
2023-04-15T14:36:13.019Z,0.30
2023-04-15T14:39:07.364Z,0.40
2023-04-15T14:42:01.667Z,0.50
2023-04-15T14:44:55.821Z,0.32
2023-04-15T14:47:49.990Z,0.40
2023-04-15T14:50:44.308Z,0.77
2023-04-15T14:53:38.443Z,0.98
2023-04-15T14:56:32.728Z,1.05
2023-04-15T14:59:27.305Z,0.60
2023-04-15T15:02:37.347Z,1.30
2023-04-15T15:05:32.298Z,0.77
2023-04-15T15:08:26.735Z,0.77
2023-04-15T15:11:20.886Z,0.52
2023-04-15T15:14:15.039Z,1.17
2023-04-15T15:17:09.293Z,0.88
2023-04-15T15:20:04.836Z,1.77
2023-04-15T15:22:59.141Z,0.70
2023-04-15T15:25:53.356Z,0.82
2023-04-15T15:28:47.519Z,0.50
2023-04-15T15:31:41.836Z,0.50
2023-04-15T15:34:36.023Z,0.68
2023-04-15T15:37:31.847Z,0.60
2023-04-15T15:40:26.181Z,0.60
2023-04-15T15:43:20.349Z,0.40
2023-04-15T15:46:14.544Z,0.50
2023-04-15T15:49:08.888Z,0.50
2023-04-15T15:52:03.087Z,0.50
2023-04-15T15:54:57.414Z,0.50
2023-04-15T15:57:51.581Z,0.50
2023-04-15T16:00:45.867Z,0.73
2023-04-15T16:03:40.629Z,0.63
2023-04-15T16:06:35.353Z,0.52
2023-04-15T16:09:29.700Z,0.60
2023-04-15T16:12:23.827Z,0.50
2023-04-15T16:15:18.001Z,0.47
2023-04-15T16:18:12.162Z,0.47
2023-04-15T16:21:07.230Z,0.60
2023-04-15T16:24:01.677Z,0.30
2023-04-15T16:26:55.778Z,0.60
2023-04-15T16:29:50.035Z,0.40
2023-04-15T16:32:44.396Z,0.30
2023-04-15T16:35:38.654Z,0.57
2023-04-15T16:38:33.031Z,0.50
2023-04-15T16:41:27.213Z,0.50
2023-04-15T16:44:21.510Z,0.65
2023-04-15T16:47:16.054Z,0.60
2023-04-15T16:50:10.974Z,0.52
2023-04-15T16:53:05.170Z,0.50
2023-04-15T16:55:59.345Z,0.50
2023-04-15T16:58:53.467Z,0.40
2023-04-15T17:01:50.664Z,0.30
2023-04-15T17:07:38.572Z,0.50
2023-04-15T17:10:32.973Z,0.20
2023-04-15T17:13:27.867Z,0.68
2023-04-15T17:16:22.199Z,0.40
2023-04-15T17:19:16.357Z,0.50
2023-04-15T17:22:10.690Z,0.40
2023-04-15T17:25:05.774Z,0.50
2023-04-15T17:27:59.937Z,0.30
2023-04-15T17:30:54.078Z,0.40
2023-04-15T17:34:00.516Z,0.47
2023-04-15T17:37:02.508Z,0.50
2023-04-15T17:39:56.688Z,0.95
2023-04-15T17:42:50.757Z,0.40
2023-04-15T17:45:45.583Z,0.35
2023-04-15T17:48:39.812Z,0.40
2023-04-15T17:51:34.019Z,0.50
2023-04-15T17:54:28.189Z,0.47
2023-04-15T17:57:22.361Z,0.40
2023-04-15T18:00:17.745Z,0.40
2023-04-15T18:03:12.092Z,0.30
2023-04-15T18:06:06.998Z,0.35
2023-04-15T18:09:01.405Z,0.57
2023-04-15T18:11:55.523Z,0.55
2023-04-15T18:14:49.696Z,0.35
2023-04-15T18:17:43.915Z,0.40
2023-04-15T18:20:38.221Z,0.55
2023-04-15T18:23:32.381Z,0.28
2023-04-15T18:26:27.208Z,0.38
2023-04-15T18:29:21.685Z,0.20
2023-04-15T18:32:15.842Z,0.30
2023-04-15T18:35:10.500Z,0.30
2023-04-15T18:38:07.058Z,0.30
2023-04-15T18:41:01.250Z,0.40
2023-04-15T18:43:57.293Z,0.40
2023-04-15T18:46:51.482Z,0.30
2023-04-15T18:49:45.574Z,0.57
2023-04-15T18:52:39.844Z,0.30
2023-04-15T18:55:34.014Z,0.22
2023-04-15T18:58:29.120Z,0.40
2023-04-15T19:01:43.239Z,0.30
2023-04-15T19:04:37.538Z,0.30
2023-04-15T19:07:32.802Z,0.40
2023-04-15T19:10:29.112Z,0.40
2023-04-15T19:13:23.832Z,0.60
2023-04-15T19:16:18.031Z,0.38
2023-04-15T19:19:15.497Z,1.75
2023-04-15T19:22:11.036Z,0.70
2023-04-15T19:25:06.845Z,0.40
2023-04-15T19:28:01.099Z,0.35
2023-04-15T19:30:55.626Z,1.02
2023-04-15T19:33:49.804Z,0.60
2023-04-15T19:36:44.232Z,0.70
2023-04-15T19:39:38.394Z,0.70
2023-04-15T19:42:32.534Z,0.30
2023-04-15T19:45:26.747Z,0.65
2023-04-15T19:48:21.405Z,0.50
2023-04-15T19:51:15.537Z,0.50
2023-04-15T19:54:09.660Z,0.32
2023-04-15T19:57:03.776Z,0.40
2023-04-15T19:59:57.997Z,0.43
2023-04-15T20:02:52.317Z,0.50
2023-04-15T20:05:46.701Z,0.50
2023-04-15T20:08:40.797Z,0.30
2023-04-15T20:12:46.792Z,0.50
2023-04-15T20:14:49.080Z,0.40
2023-04-15T20:17:43.248Z,0.70
2023-04-15T20:20:37.489Z,0.50
2023-04-15T20:23:31.689Z,0.60
2023-04-15T20:26:26.119Z,0.43
2023-04-15T20:29:20.346Z,0.40
2023-04-15T20:32:14.586Z,0.45
2023-04-15T20:35:09.218Z,0.20
2023-04-15T20:38:05.186Z,0.40
2023-04-15T20:40:59.650Z,0.60
2023-04-15T20:43:53.815Z,1.17
2023-04-15T20:46:48.180Z,1.63
2023-04-15T20:49:42.404Z,1.63
2023-04-15T20:52:36.717Z,1.80
2023-04-15T20:55:30.952Z,1.90
2023-04-15T20:58:25.330Z,1.75
2023-04-15T21:01:19.597Z,1.63
2023-04-15T21:04:13.777Z,1.30
2023-04-15T21:07:08.087Z,1.40
2023-04-15T21:10:02.396Z,1.40
2023-04-15T21:12:56.677Z,1.20
2023-04-15T21:15:54.605Z,1.00
2023-04-15T21:18:48.722Z,1.08
2023-04-15T21:21:42.856Z,0.93
2023-04-15T21:24:37.052Z,0.70
2023-04-15T21:27:31.225Z,0.85
2023-04-15T21:30:25.409Z,0.60
2023-04-15T21:33:21.764Z,0.50
2023-04-15T21:36:15.952Z,0.63
2023-04-15T21:39:10.191Z,0.88
2023-04-15T21:42:04.358Z,0.80
2023-04-15T21:44:58.534Z,0.63
2023-04-15T21:47:59.466Z,0.75
2023-04-15T21:51:02.953Z,0.70
2023-04-15T21:53:57.182Z,1.38
2023-04-15T21:56:52.058Z,1.67
2023-04-15T21:59:46.289Z,1.77
2023-04-15T22:02:40.617Z,1.58
2023-04-15T22:05:34.830Z,1.40
2023-04-15T22:08:29.089Z,1.00
2023-04-15T22:11:28.144Z,1.20
2023-04-15T22:14:22.858Z,2.13
2023-04-15T22:17:17.051Z,1.20
2023-04-15T22:20:11.821Z,1.40
2023-04-15T22:23:09.050Z,1.20
2023-04-15T22:28:56.909Z,0.80
2023-04-15T22:31:51.286Z,0.60
2023-04-15T22:34:45.561Z,0.60
2023-04-15T22:37:39.815Z,0.60
2023-04-15T22:40:34.375Z,1.17
2023-04-15T22:43:28.685Z,1.10
2023-04-15T22:46:22.852Z,0.80
2023-04-15T22:49:17.128Z,0.60
2023-04-15T22:52:14.568Z,0.50
2023-04-15T22:55:18.432Z,0.47
2023-04-15T22:58:12.610Z,0.47
2023-04-15T23:01:07.093Z,1.05
2023-04-15T23:04:05.631Z,0.63
2023-04-15T23:07:04.516Z,0.50
2023-04-15T23:09:59.328Z,0.50
2023-04-15T23:12:53.507Z,0.57
2023-04-15T23:15:47.770Z,0.77
2023-04-15T23:18:41.991Z,0.57
2023-04-15T23:21:36.210Z,0.70
2023-04-15T23:24:30.396Z,0.70
2023-04-15T23:27:24.533Z,0.47
2023-04-15T23:30:18.833Z,0.70
2023-04-15T23:33:13.256Z,0.80
2023-04-15T23:36:10.233Z,0.75
2023-04-15T23:39:04.359Z,0.75
2023-04-15T23:41:58.748Z,0.70
2023-04-15T23:44:52.917Z,0.82
2023-04-15T23:47:47.440Z,0.73
2023-04-15T23:50:41.772Z,0.82
2023-04-15T23:53:36.102Z,0.70
2023-04-15T23:56:30.285Z,0.50
2023-04-15T23:59:24.644Z,0.73
